Time;durP1;ratioP1;P1;durP2;ratioP2;P2;SDS_P1;SDS_P2;PMS_P1;PMS_P2;Temp;Humidity;BMP_temperature;BMP_pressure;BME280_temperature;BME280_humidity;BME280_pressure;Samples;Min_cycle;Max_cycle;Signal;HPM_P1;HPM_P2
2022/04/04 00:01:41;;;;;;;14.10;12.70;;;;;;;7.37;74.48;99737.75;5113806;28;20191;-67
2022/04/04 00:04:09;;;;;;;12.03;11.03;;;;;;;7.19;74.58;99747.69;5113527;28;20198;-67
2022/04/04 00:06:36;;;;;;;13.63;12.33;;;;;;;7.26;74.68;99751.31;5113214;28;20245;-67
2022/04/04 00:09:03;;;;;;;12.67;11.67;;;;;;;7.16;74.73;99748.88;5111896;28;20663;-67
2022/04/04 00:11:29;;;;;;;12.77;11.57;;;;;;;7.17;75.35;99744.38;5112831;28;20746;-67
2022/04/04 00:13:56;;;;;;;13.33;12.13;;;;;;;7.11;75.17;99753.81;5113612;28;20251;-67
2022/04/04 00:16:23;;;;;;;12.83;11.63;;;;;;;6.98;74.82;99747.41;5112954;28;20286;-67
2022/04/04 00:18:50;;;;;;;12.47;11.27;;;;;;;7.07;74.45;99752.50;5113021;28;20191;-68
2022/04/04 00:21:18;;;;;;;11.83;10.63;;;;;;;6.97;74.62;99748.38;5113452;28;20190;-67
2022/04/04 00:23:44;;;;;;;12.43;11.27;;;;;;;6.97;74.62;99751.03;5112782;28;20229;-67
2022/04/04 00:26:11;;;;;;;13.60;11.63;;;;;;;6.91;75.19;99751.69;5112608;28;20194;-67
2022/04/04 00:28:38;;;;;;;13.13;11.93;;;;;;;6.87;75.10;99750.38;5112587;28;20556;-67
2022/04/04 00:31:05;;;;;;;12.67;11.47;;;;;;;6.95;74.15;99753.84;5112909;28;20198;-67
2022/04/04 00:33:31;;;;;;;12.23;11.23;;;;;;;7.07;73.62;99754.31;5112822;28;20259;-67
2022/04/04 00:35:58;;;;;;;11.47;10.50;;;;;;;7.07;73.28;99751.69;5112794;28;20249;-68
2022/04/04 00:38:26;;;;;;;11.00;10.17;;;;;;;7.03;73.35;99750.38;5112320;28;20270;-68
2022/04/04 00:40:53;;;;;;;11.90;10.60;;;;;;;7.14;73.70;99763.25;5112719;28;20243;-68
2022/04/04 00:43:19;;;;;;;12.90;10.93;;;;;;;7.25;73.37;99757.59;5112974;28;20256;-68
2022/04/04 00:45:47;;;;;;;10.60;9.70;;;;;;;7.27;73.35;99758.25;5112666;28;20276;-68
2022/04/04 00:48:14;;;;;;;11.93;10.77;;;;;;;7.27;74.20;99752.97;5113473;28;20274;-68
2022/04/04 00:50:40;;;;;;;10.87;9.97;;;;;;;7.21;74.89;99751.81;5112890;28;20195;-68
2022/04/04 00:53:09;;;;;;;12.23;11.07;;;;;;;7.12;76.09;99754.63;5112864;28;20195;-68
2022/04/04 00:55:37;;;;;;;12.13;11.03;;;;;;;7.19;76.42;99745.88;5113043;28;20197;-68
2022/04/04 00:58:04;;;;;;;10.57;9.83;;;;;;;7.22;76.51;99750.00;5113288;28;20222;-67
2022/04/04 01:00:31;;;;;;;10.93;9.93;;;;;;;7.14;77.07;99742.91;5112209;28;20663;-67
2022/04/04 01:02:58;;;;;;;10.20;9.40;;;;;;;7.10;77.20;99746.06;5112525;28;20656;-68
2022/04/04 01:05:24;;;;;;;10.00;9.20;;;;;;;7.19;77.48;99745.06;5112163;28;20679;-68
2022/04/04 01:07:52;;;;;;;10.83;10.00;;;;;;;7.11;77.09;99745.06;5112478;28;20198;-67
2022/04/04 01:10:18;;;;;;;10.93;10.03;;;;;;;7.15;76.93;99733.97;5112113;28;20217;-67
2022/04/04 01:12:53;;;;;;;10.77;9.80;;;;;;;7.18;76.45;99740.78;5112683;28;20188;-68
2022/04/04 01:15:21;;;;;;;10.30;9.37;;;;;;;7.18;76.53;99746.06;5112133;28;20643;-67
2022/04/04 01:17:48;;;;;;;10.60;9.60;;;;;;;7.24;76.46;99748.00;5112243;28;20227;-67
2022/04/04 01:20:15;;;;;;;10.73;9.80;;;;;;;7.35;76.51;99750.31;5113397;28;20193;-68
2022/04/04 01:22:46;;;;;;;10.53;9.53;;;;;;;7.39;76.78;99751.63;5116307;28;20229;-68
2022/04/04 01:25:14;;;;;;;10.33;9.53;;;;;;;7.48;76.14;99742.66;5117132;28;20186;-68
2022/04/04 01:27:40;;;;;;;10.37;9.40;;;;;;;7.40;75.45;99763.84;5116252;28;20205;-68
2022/04/04 01:30:10;;;;;;;11.40;10.30;;;;;;;7.35;75.62;99763.53;5115906;28;20251;-68
2022/04/04 01:32:37;;;;;;;10.80;10.00;;;;;;;7.25;75.58;99776.91;5116732;28;20240;-68
2022/04/04 01:35:05;;;;;;;10.97;9.90;;;;;;;7.29;74.11;99777.38;5115824;28;20193;-67
2022/04/04 01:37:32;;;;;;;10.90;10.00;;;;;;;7.34;73.16;99778.53;5116287;28;20257;-67
2022/04/04 01:39:59;;;;;;;10.30;9.40;;;;;;;7.27;72.93;99784.66;5116061;28;20247;-67
2022/04/04 01:42:27;;;;;;;10.17;9.43;;;;;;;7.17;73.66;99784.00;5115670;28;20667;-67
2022/04/04 01:44:54;;;;;;;9.40;8.70;;;;;;;7.25;73.27;99787.47;5115614;28;20194;-67
2022/04/04 01:47:21;;;;;;;9.83;9.13;;;;;;;7.27;73.60;99789.97;5115871;28;20191;-68
2022/04/04 01:49:47;;;;;;;10.00;9.20;;;;;;;7.19;73.79;99796.06;5115543;28;20247;-67
2022/04/04 01:52:14;;;;;;;9.17;8.47;;;;;;;7.25;73.38;99787.47;5115573;28;20194;-68
2022/04/04 01:54:41;;;;;;;10.27;9.47;;;;;;;7.28;72.77;99796.88;5115742;28;20222;-68
2022/04/04 01:57:08;;;;;;;10.07;9.33;;;;;;;7.32;72.92;99804.31;5115623;28;20193;-68
2022/04/04 01:59:36;;;;;;;10.03;9.23;;;;;;;7.24;73.80;99790.28;5115304;28;20206;-68
2022/04/04 02:02:03;;;;;;;10.83;10.00;;;;;;;7.39;72.75;99799.19;5116147;28;20227;-68
2022/04/04 02:04:29;;;;;;;9.87;9.17;;;;;;;7.43;73.58;99789.94;5115244;28;20667;-68
2022/04/04 02:06:56;;;;;;;11.70;10.70;;;;;;;7.52;73.37;99799.47;5116325;28;20278;-68
2022/04/04 02:09:23;;;;;;;10.77;9.87;;;;;;;7.39;73.33;99788.63;5115445;28;20198;-68
2022/04/04 02:11:49;;;;;;;11.63;10.63;;;;;;;7.50;72.60;99801.44;5115428;28;20186;-66
2022/04/04 02:14:16;;;;;;;11.67;10.53;;;;;;;7.43;72.59;99805.78;5115056;28;20239;-67
2022/04/04 02:16:45;;;;;;;11.20;10.33;;;;;;;7.20;72.62;99805.66;5115345;28;20193;-66
2022/04/04 02:19:12;;;;;;;11.77;10.57;;;;;;;7.26;72.76;99809.44;5115194;28;20308;-66
2022/04/04 02:21:38;;;;;;;17.57;11.10;;;;;;;7.24;72.97;99806.97;5114957;28;20655;-66
2022/04/04 02:24:06;;;;;;;11.90;10.80;;;;;;;7.19;72.32;99814.53;5115242;28;20230;-67
2022/04/04 02:26:32;;;;;;;11.97;10.87;;;;;;;7.06;72.08;99819.50;5115957;28;20200;-66
2022/04/04 02:28:59;;;;;;;11.50;10.47;;;;;;;7.06;70.68;99824.78;5114766;27;20201;-67
2022/04/04 02:31:26;;;;;;;11.37;10.40;;;;;;;6.97;70.77;99830.25;5113664;28;20198;-67
2022/04/04 02:33:54;;;;;;;11.97;10.83;;;;;;;6.85;71.07;99826.28;5114656;28;20295;-67
2022/04/04 02:36:21;;;;;;;11.73;10.63;;;;;;;6.70;70.71;99827.94;5115498;28;20253;-67
2022/04/04 02:38:48;;;;;;;11.03;10.03;;;;;;;6.74;70.31;99839.81;5114526;28;20618;-66
2022/04/04 02:41:15;;;;;;;10.50;9.77;;;;;;;6.68;69.77;99851.00;5114878;28;20250;-67
2022/04/04 02:43:42;;;;;;;9.30;8.67;;;;;;;6.62;68.08;99855.09;5114835;28;20198;-66
2022/04/04 02:46:11;;;;;;;10.53;9.63;;;;;;;6.58;67.06;99850.34;5114449;28;20251;-66
2022/04/04 02:48:37;;;;;;;9.73;8.93;;;;;;;6.65;67.15;99851.34;5114616;27;20251;-67
2022/04/04 02:51:07;;;;;;;9.93;9.20;;;;;;;6.70;67.47;99865.69;5114372;28;20249;-67
2022/04/04 02:53:33;;;;;;;9.77;8.97;;;;;;;6.68;67.65;99851.00;5114232;28;20687;-67
2022/04/04 02:58:44;;;;;;;12.37;11.17;;;;;;;6.75;67.90;99857.28;5114257;28;20235;-67
2022/04/04 03:01:11;;;;;;;10.77;9.97;;;;;;;6.67;68.64;99849.34;5114991;28;20193;-67
2022/04/04 03:03:38;;;;;;;10.07;9.27;;;;;;;6.63;68.06;99848.03;5114381;28;20193;-67
2022/04/04 03:06:06;;;;;;;11.30;10.37;;;;;;;6.60;69.09;99840.44;5114339;28;20257;-67
2022/04/04 03:08:32;;;;;;;10.67;9.67;;;;;;;6.61;67.95;99844.75;5114332;28;20200;-67
2022/04/04 03:10:59;;;;;;;10.33;9.53;;;;;;;6.56;68.85;99847.03;5113962;28;20187;-67
2022/04/04 03:13:26;;;;;;;9.47;8.67;;;;;;;6.65;67.49;99851.34;5113904;28;20252;-67
2022/04/04 03:15:52;;;;;;;10.87;10.07;;;;;;;6.64;67.07;99844.41;5113886;28;20667;-69
2022/04/04 03:18:19;;;;;;;10.37;9.57;;;;;;;6.80;67.08;99844.41;5113692;28;20270;-68
2022/04/04 03:20:46;;;;;;;11.50;10.57;;;;;;;6.95;67.52;99848.06;5114872;28;20193;-68
2022/04/04 03:23:14;;;;;;;11.37;10.37;;;;;;;6.91;68.24;99833.56;5113675;28;20225;-67
2022/04/04 03:25:42;;;;;;;11.20;10.20;;;;;;;6.97;69.97;99846.09;5114527;28;20254;-69
2022/04/04 03:28:09;;;;;;;12.63;11.23;;;;;;;6.87;71.65;99840.16;5113481;28;20694;-68
2022/04/04 03:30:36;;;;;;;12.80;11.73;;;;;;;6.76;71.86;99843.09;5113842;28;20274;-67
2022/04/04 03:33:03;;;;;;;12.70;11.27;;;;;;;6.77;71.86;99845.56;5114117;28;20222;-66
2022/04/04 03:35:33;;;;;;;11.53;10.60;;;;;;;6.64;71.23;99850.50;5114339;28;20187;-67
2022/04/04 03:38:03;;;;;;;10.87;9.47;;;;;;;6.67;71.48;99855.47;5113316;28;20234;-67
2022/04/04 03:40:31;;;;;;;11.50;10.30;;;;;;;6.73;70.44;99860.09;5113972;28;20247;-67
2022/04/04 03:43:00;;;;;;;10.93;10.03;;;;;;;6.73;70.81;99859.28;5114248;28;20272;-67
2022/04/04 03:45:27;;;;;;;10.20;9.30;;;;;;;6.68;69.23;99865.03;5113569;28;20190;-67
2022/04/04 03:47:55;;;;;;;11.80;10.63;;;;;;;6.65;67.93;99867.19;5113198;28;20745;-66
2022/04/04 03:50:22;;;;;;;9.23;8.53;;;;;;;6.71;66.04;99871.81;5113461;28;20245;-67
2022/04/04 03:52:51;;;;;;;9.27;8.30;;;;;;;6.76;65.46;99874.78;5113122;27;20739;-67
2022/04/04 03:55:20;;;;;;;8.23;7.53;;;;;;;6.87;65.10;99882.38;5113082;28;20232;-66
2022/04/04 03:57:49;;;;;;;9.87;8.87;;;;;;;6.90;64.08;99890.00;5113294;28;20193;-66
2022/04/04 04:00:16;;;;;;;8.30;7.60;;;;;;;6.88;63.35;99894.59;5113570;28;20283;-66
2022/04/04 04:02:43;;;;;;;7.93;7.27;;;;;;;6.92;63.29;99895.94;5113288;28;20187;-66
2022/04/04 04:05:10;;;;;;;8.07;7.27;;;;;;;7.02;63.55;99896.63;5113258;28;20194;-66
2022/04/04 04:07:37;;;;;;;10.20;8.17;;;;;;;7.12;62.53;99897.28;5112900;28;20220;-66
2022/04/04 04:10:05;;;;;;;8.07;7.27;;;;;;;7.18;62.38;99896.63;5113450;28;20198;-66
2022/04/04 04:12:31;;;;;;;7.47;6.90;;;;;;;7.21;61.59;99901.56;5114120;28;20267;-67
2022/04/04 04:15:00;;;;;;;8.40;7.73;;;;;;;7.30;61.55;99895.28;5112952;28;20186;-66
2022/04/04 04:17:26;;;;;;;7.00;6.50;;;;;;;7.17;61.18;99905.53;5112845;28;20270;-67
2022/04/04 04:22:46;;;;;;;7.77;7.00;;;;;;;7.65;58.93;99905.50;5076250;28;20226;-67
2022/04/04 04:25:14;;;;;;;9.00;7.10;;;;;;;7.92;58.32;99913.06;5112621;27;20687;-67
2022/04/04 04:27:41;;;;;;;16.23;7.27;;;;;;;8.13;57.08;99911.50;5112852;27;20194;-68
2022/04/04 04:30:13;;;;;;;8.17;6.33;;;;;;;8.43;54.76;99917.91;5112863;28;20190;-67
2022/04/04 04:32:41;;;;;;;7.57;6.97;;;;;;;8.61;53.32;99926.41;5113135;28;20214;-67
2022/04/04 04:35:09;;;;;;;9.30;6.73;;;;;;;8.63;53.89;99929.72;5112697;28;20202;-67
2022/04/04 04:37:36;;;;;;;7.30;6.70;;;;;;;8.68;53.83;99945.91;5113532;28;20194;-67
2022/04/04 04:40:03;;;;;;;7.20;6.60;;;;;;;8.48;53.45;99947.31;5112624;28;20218;-68
2022/04/04 04:42:32;;;;;;;9.40;6.13;;;;;;;8.84;52.33;99948.47;5113015;28;20186;-68
2022/04/04 04:44:59;;;;;;;7.63;7.13;;;;;;;9.21;51.34;99959.19;5113441;28;20197;-68
2022/04/04 04:47:28;;;;;;;7.87;7.00;;;;;;;9.27;51.04;99961.16;5112244;28;20697;-67
2022/04/04 04:49:54;;;;;;;8.03;7.30;;;;;;;9.21;50.89;99961.84;5112084;28;20198;-67
2022/04/04 04:52:21;;;;;;;7.37;6.67;;;;;;;9.29;50.65;99967.91;5112010;28;20668;-67
2022/04/04 04:54:48;;;;;;;7.67;6.40;;;;;;;9.40;49.39;99971.97;5113202;28;20321;-67
2022/04/04 04:57:14;;;;;;;6.93;6.43;;;;;;;9.56;49.25;99971.88;5116556;28;20190;-68
2022/04/04 04:59:41;;;;;;;8.77;6.33;;;;;;;9.88;46.75;99982.19;5116382;28;20614;-68
2022/04/04 05:02:08;;;;;;;8.97;6.03;;;;;;;10.18;46.76;99974.13;5116615;28;20227;-68
2022/04/04 05:04:36;;;;;;;7.10;6.40;;;;;;;10.15;46.36;99987.78;5116385;28;20195;-68
2022/04/04 05:07:02;;;;;;;5.73;5.33;;;;;;;10.38;45.61;99985.03;5116576;27;20270;-68
2022/04/04 05:09:29;;;;;;;8.10;5.53;;;;;;;10.65;45.10;99982.56;5116115;28;20199;-68
2022/04/04 05:11:56;;;;;;;12.53;6.30;;;;;;;10.73;45.42;99989.59;5115549;28;20200;-68
2022/04/04 05:14:23;;;;;;;8.33;6.37;;;;;;;10.90;44.97;99985.72;5116134;28;20196;-68
2022/04/04 05:16:49;;;;;;;6.43;5.87;;;;;;;11.21;43.87;99991.63;5116976;28;20192;-69
2022/04/04 05:19:18;;;;;;;5.77;5.37;;;;;;;11.45;43.84;99990.44;5116353;28;20281;-69
2022/04/04 05:21:46;;;;;;;6.77;5.63;;;;;;;11.84;42.59;100002.31;5116860;28;20275;-67
2022/04/04 05:24:13;;;;;;;5.37;5.07;;;;;;;12.20;42.38;99995.03;5115840;28;20224;-68
2022/04/04 05:26:40;;;;;;;7.20;6.00;;;;;;;12.32;41.62;99995.28;5115939;28;20234;-67
2022/04/04 05:29:07;;;;;;;6.13;5.73;;;;;;;12.48;40.64;99998.50;5115871;27;20250;-68
2022/04/04 05:31:34;;;;;;;6.13;5.60;;;;;;;12.15;40.90;100000.13;5114459;28;20659;-69
2022/04/04 05:34:01;;;;;;;6.07;5.67;;;;;;;12.33;41.22;99992.44;5112596;28;20198;-68
2022/04/04 05:36:28;;;;;;;7.80;5.60;;;;;;;12.71;40.53;99991.06;5116133;28;20218;-68
2022/04/04 05:38:57;;;;;;;5.40;4.97;;;;;;;13.20;39.05;99989.03;5115817;28;20658;-68
2022/04/04 05:41:24;;;;;;;5.13;4.67;;;;;;;13.26;38.36;99996.22;5115865;28;20633;-68
2022/04/04 05:43:50;;;;;;;5.70;5.27;;;;;;;13.29;38.64;99979.81;5115875;28;20197;-68
2022/04/04 05:46:18;;;;;;;6.03;5.50;;;;;;;13.82;37.22;99976.19;5116425;28;20187;-68
2022/04/04 05:48:45;;;;;;;7.40;5.33;;;;;;;13.70;37.07;99982.34;5115750;28;20191;-68
2022/04/04 05:51:16;;;;;;;5.37;5.07;;;;;;;13.82;37.29;99981.53;5115998;28;20240;-69
2022/04/04 05:53:43;;;;;;;5.17;4.83;;;;;;;14.09;37.16;99983.16;5115343;27;20194;-69
2022/04/04 05:56:11;;;;;;;6.10;5.63;;;;;;;14.44;35.90;99992.63;5115316;28;20541;-69
2022/04/04 05:58:40;;;;;;;6.73;6.23;;;;;;;14.37;35.57;99999.81;5115095;28;20218;-69
2022/04/04 06:01:08;;;;;;;6.93;6.43;;;;;;;13.96;36.24;100001.88;5115202;28;20193;-69
2022/04/04 06:03:35;;;;;;;15.00;6.50;;;;;;;14.00;36.62;100010.28;5115234;28;20190;-68
2022/04/04 06:06:02;;;;;;;17.83;8.20;;;;;;;14.16;36.73;100008.03;5115266;28;20182;-69
2022/04/04 06:08:30;;;;;;;6.27;5.83;;;;;;;14.42;36.41;100004.56;5115346;28;20316;-69
2022/04/04 06:10:57;;;;;;;6.70;6.30;;;;;;;14.59;36.48;100003.88;5115368;27;20252;-69
2022/04/04 06:13:25;;;;;;;7.43;5.90;;;;;;;14.81;36.21;100005.28;5114998;28;20550;-69
2022/04/04 06:15:52;;;;;;;5.70;5.10;;;;;;;14.62;35.45;100006.16;5115307;28;20251;-69
2022/04/04 06:18:19;;;;;;;5.50;5.03;;;;;;;14.59;34.94;100006.56;5115115;28;20251;-69
2022/04/04 06:20:46;;;;;;;10.00;6.70;;;;;;;14.64;35.01;100012.13;5115996;28;20195;-69
2022/04/04 06:23:12;;;;;;;24.30;7.20;;;;;;;14.63;34.78;100007.78;5114676;28;20226;-70
2022/04/04 06:25:41;;;;;;;6.00;5.70;;;;;;;14.50;34.80;100013.16;5115107;28;20195;-69
2022/04/04 06:28:08;;;;;;;6.27;5.77;;;;;;;14.45;34.79;100010.28;5114658;28;20199;-69
2022/04/04 06:30:37;;;;;;;8.77;5.83;;;;;;;14.39;34.54;100012.97;5115051;28;20353;-69
2022/04/04 06:33:07;;;;;;;7.60;5.10;;;;;;;14.38;35.42;100004.13;5114512;28;20194;-69
2022/04/04 06:35:34;;;;;;;19.07;8.23;;;;;;;14.71;34.30;100015.56;5114870;28;20198;-70
2022/04/04 06:38:02;;;;;;;5.30;4.80;;;;;;;14.85;33.33;100017.19;5114782;28;20255;-70
2022/04/04 06:40:29;;;;;;;8.77;5.10;;;;;;;14.82;33.78;100022.97;5114327;28;20210;-69
2022/04/04 06:42:56;;;;;;;5.97;5.30;;;;;;;14.50;33.34;100012.34;5115316;28;20263;-69
2022/04/04 06:45:24;;;;;;;7.63;5.30;;;;;;;14.55;34.24;100021.38;5114367;28;20194;-69
2022/04/04 06:47:52;;;;;;;7.77;5.60;;;;;;;14.12;34.15;100022.84;5114276;28;20190;-69
2022/04/04 06:50:20;;;;;;;8.60;5.20;;;;;;;14.21;34.67;100018.16;5114313;28;20663;-69
2022/04/04 06:52:47;;;;;;;5.27;4.90;;;;;;;14.15;33.37;100017.09;5114486;28;20255;-69
2022/04/04 06:55:15;;;;;;;12.53;6.37;;;;;;;14.14;33.71;100006.59;5114245;28;20195;-69
2022/04/04 06:57:42;;;;;;;5.47;5.07;;;;;;;14.20;34.27;100021.78;5114732;28;20195;-70
2022/04/04 07:00:11;;;;;;;5.33;5.00;;;;;;;14.33;34.46;100016.47;5114028;28;20233;-69
2022/04/04 07:02:38;;;;;;;8.27;5.40;;;;;;;13.98;34.13;100018.53;5114209;28;20629;-69
2022/04/04 07:05:08;;;;;;;6.80;5.40;;;;;;;14.34;34.56;100018.94;5114348;28;20191;-69
2022/04/04 07:07:35;;;;;;;7.00;6.47;;;;;;;14.18;34.29;100011.31;5115020;28;20186;-69
2022/04/04 07:10:03;;;;;;;7.03;6.33;;;;;;;13.89;35.14;100009.06;5114090;28;20198;-69
2022/04/04 07:12:29;;;;;;;5.80;5.40;;;;;;;14.05;34.79;100018.53;5114155;28;20212;-69
2022/04/04 07:14:56;;;;;;;6.20;5.80;;;;;;;13.56;35.19;100018.88;5113947;28;20191;-69
2022/04/04 07:17:23;;;;;;;6.03;5.63;;;;;;;13.73;35.56;100012.13;5113336;28;20236;-69
2022/04/04 07:19:50;;;;;;;19.77;5.97;;;;;;;14.04;34.64;100001.66;5113386;28;20214;-69
2022/04/04 07:22:18;;;;;;;9.27;5.67;;;;;;;13.83;34.80;100020.56;5113668;28;20195;-69
2022/04/04 07:24:45;;;;;;;6.33;5.83;;;;;;;13.74;35.24;100024.47;5113746;28;20179;-69
2022/04/04 07:27:12;;;;;;;6.50;6.00;;;;;;;14.15;34.76;100014.41;5114347;28;20627;-69
2022/04/04 07:29:38;;;;;;;6.47;5.97;;;;;;;14.02;34.63;100018.94;5113320;28;20247;-69
2022/04/04 07:32:06;;;;;;;7.20;5.87;;;;;;;13.92;35.52;100019.34;5113260;28;20578;-69
2022/04/04 07:34:33;;;;;;;5.80;5.40;;;;;;;14.32;35.49;100021.00;5113556;28;20190;-69
2022/04/04 07:37:00;;;;;;;6.30;5.90;;;;;;;14.03;35.44;100025.91;5113153;28;20664;-68
2022/04/04 07:39:28;;;;;;;6.07;5.77;;;;;;;14.13;36.10;100018.31;5113162;28;20222;-69
2022/04/04 07:41:55;;;;;;;14.20;5.80;;;;;;;14.35;35.35;100036.66;5094439;28;20245;-69
2022/04/04 07:44:22;;;;;;;6.03;5.67;;;;;;;14.33;35.46;100040.53;5092889;28;20187;-69
2022/04/04 07:46:48;;;;;;;7.87;5.60;;;;;;;14.64;35.46;100036.19;5092936;28;20196;-69
2022/04/04 07:49:17;;;;;;;7.97;5.80;;;;;;;14.75;35.59;100035.53;5093386;28;20203;-69
2022/04/04 07:51:44;;;;;;;6.47;5.80;;;;;;;14.81;35.46;100031.19;5092607;28;20675;-70
2022/04/04 07:54:10;;;;;;;7.07;5.60;;;;;;;15.22;34.28;100047.72;5092949;28;20199;-70
2022/04/04 07:56:38;;;;;;;5.90;5.40;;;;;;;15.01;34.17;100038.16;5092534;28;20676;-70
2022/04/04 07:59:05;;;;;;;13.47;5.83;;;;;;;15.58;33.83;100046.16;5092957;28;20191;-72
2022/04/04 08:01:32;;;;;;;9.20;5.73;;;;;;;16.20;32.57;100045.31;5092529;28;20195;-72
2022/04/04 08:03:59;;;;;;;5.60;5.30;;;;;;;16.59;32.24;100039.63;5092317;28;20195;-73
2022/04/04 08:06:25;;;;;;;8.33;6.47;;;;;;;16.99;31.63;100032.78;5093052;28;20200;-72
2022/04/04 08:08:52;;;;;;;6.03;5.63;;;;;;;16.48;31.60;100040.34;5093305;28;20545;-72
2022/04/04 08:11:19;;;;;;;10.00;7.70;;;;;;;16.01;31.91;100040.09;5092457;28;20200;-72
2022/04/04 08:13:48;;;;;;;5.60;5.30;;;;;;;15.55;32.87;100035.03;5091957;28;20210;-70
2022/04/04 08:16:16;;;;;;;13.03;5.30;;;;;;;15.42;34.14;100038.63;5092101;28;20191;-71
2022/04/04 08:18:42;;;;;;;5.47;5.07;;;;;;;15.64;33.70;100034.56;5092200;28;20187;-71
2022/04/04 08:21:09;;;;;;;5.07;4.73;;;;;;;15.52;32.99;100025.56;5092147;28;20604;-71
2022/04/04 08:23:36;;;;;;;5.33;4.83;;;;;;;15.08;34.03;100022.88;5092474;28;20223;-73
2022/04/04 08:26:03;;;;;;;7.73;4.80;;;;;;;15.05;34.45;100012.59;5092138;28;20195;-70
2022/04/04 08:28:29;;;;;;;5.47;4.97;;;;;;;15.35;32.73;100029.78;5092130;28;20741;-70
2022/04/04 08:30:57;;;;;;;8.23;4.57;;;;;;;15.54;33.20;100020.84;5091233;28;20225;-70
2022/04/04 08:33:27;;;;;;;10.87;4.93;;;;;;;14.89;33.63;100013.06;5092387;28;20192;-70
2022/04/04 08:35:54;;;;;;;6.37;5.97;;;;;;;14.87;34.68;100009.78;5091955;28;20244;-70
2022/04/04 08:38:20;;;;;;;25.17;14.60;;;;;;;15.21;34.17;100009.44;5092643;28;20554;-70
2022/04/04 08:40:49;;;;;;;15.33;9.20;;;;;;;15.61;33.28;100008.22;5101251;28;20282;-70
2022/04/04 08:43:19;;;;;;;6.37;4.60;;;;;;;16.09;32.98;100011.16;5112827;28;20562;-71
2022/04/04 08:45:48;;;;;;;5.60;5.17;;;;;;;16.37;31.77;100000.81;5112209;28;20731;-71
2022/04/04 08:48:17;;;;;;;26.13;12.13;;;;;;;16.33;31.93;99998.81;5112864;28;20283;-71
2022/04/04 08:50:44;;;;;;;5.53;5.00;;;;;;;16.44;32.11;99992.72;5112397;28;20198;-71
2022/04/04 08:53:11;;;;;;;5.47;4.80;;;;;;;16.55;31.35;99975.91;5112050;28;20655;-72
2022/04/04 08:55:38;;;;;;;4.60;4.37;;;;;;;16.18;31.96;99982.22;5112248;28;20194;-71
2022/04/04 08:58:05;;;;;;;10.67;4.87;;;;;;;16.28;31.46;99974.50;5112495;28;20195;-72
2022/04/04 09:00:33;;;;;;;6.77;4.80;;;;;;;16.56;31.46;99964.13;5112239;28;20226;-72
2022/04/04 09:03:03;;;;;;;5.43;4.47;;;;;;;16.31;31.57;99971.38;5112010;28;20194;-72
2022/04/04 09:05:33;;;;;;;4.93;4.63;;;;;;;16.39;31.79;99973.78;5113031;28;20294;-73
2022/04/04 09:08:02;;;;;;;4.53;4.13;;;;;;;16.91;31.19;99963.31;5112764;28;20190;-71
2022/04/04 09:10:36;;;;;;;5.83;4.40;;;;;;;17.36;30.45;99955.69;5112231;28;20195;-73
2022/04/04 09:13:11;;;;;;;5.07;4.63;;;;;;;17.89;29.37;99956.56;5111820;28;20194;-72
2022/04/04 09:15:56;;;;;;;16.00;4.77;;;;;;;18.37;29.11;99949.09;5112303;28;20270;-73
2022/04/04 09:18:49;;;;;;;5.70;4.10;;;;;;;18.27;28.26;99943.47;5112554;28;20541;-72
2022/04/04 09:21:33;;;;;;;4.20;3.97;;;;;;;18.10;28.49;99935.31;5111679;28;20704;-72
2022/04/04 09:24:02;;;;;;;4.20;3.90;;;;;;;17.86;29.06;99916.69;5112236;28;20237;-73
2022/04/04 09:26:31;;;;;;;4.20;3.90;;;;;;;17.91;29.63;99922.19;5111882;28;20198;-73
2022/04/04 09:28:58;;;;;;;4.03;3.83;;;;;;;17.65;29.48;99922.63;5112100;28;20248;-73
2022/04/04 09:31:26;;;;;;;13.40;5.50;;;;;;;17.84;29.83;99910.75;5111841;28;20207;-72
2022/04/04 09:33:57;;;;;;;4.57;4.17;;;;;;;17.79;29.85;99915.97;5111983;28;20222;-72
2022/04/04 09:36:25;;;;;;;4.20;3.80;;;;;;;18.16;28.74;99914.72;5111691;28;20563;-73
2022/04/04 09:39:02;;;;;;;5.07;4.33;;;;;;;18.37;28.94;99906.06;5112178;28;20191;-72
2022/04/04 09:41:29;;;;;;;3.70;3.50;;;;;;;18.31;28.21;99909.69;5097999;28;20219;-72
2022/04/04 09:43:57;;;;;;;6.43;3.77;;;;;;;18.03;29.13;99890.75;5095515;28;20191;-73
2022/04/04 09:46:24;;;;;;;4.33;4.03;;;;;;;18.16;28.96;99893.19;5095129;28;20253;-73
2022/04/04 09:49:08;;;;;;;4.67;4.30;;;;;;;17.91;29.02;99884.56;5095114;28;20725;-73
2022/04/04 09:51:41;;;;;;;6.73;4.07;;;;;;;17.89;29.39;99876.72;5094861;28;20255;-73
2022/04/04 09:54:11;;;;;;;3.73;3.53;;;;;;;17.88;29.38;99882.38;5095570;28;20195;-73
2022/04/04 09:56:38;;;;;;;3.87;3.57;;;;;;;18.07;29.70;99878.47;5095331;28;20237;-73
2022/04/04 09:59:05;;;;;;;3.37;3.20;;;;;;;18.42;28.71;99871.25;5095172;28;20188;-72
2022/04/04 10:01:34;;;;;;;3.83;3.63;;;;;;;18.64;28.40;99869.53;5094904;28;20216;-72
2022/04/04 10:04:03;;;;;;;4.27;4.07;;;;;;;18.96;27.84;99868.00;5095008;28;20198;-72
2022/04/04 10:06:31;;;;;;;9.17;3.70;;;;;;;18.96;27.84;99849.16;5094585;28;20687;-72
2022/04/04 10:08:59;;;;;;;5.53;3.63;;;;;;;18.46;28.32;99846.28;5095527;28;20253;-72
2022/04/04 10:11:30;;;;;;;4.23;3.83;;;;;;;18.19;29.31;99855.09;5094335;28;20660;-71
2022/04/04 10:13:57;;;;;;;4.20;3.90;;;;;;;18.23;28.62;99859.78;5095404;28;20256;-71
2022/04/04 10:16:25;;;;;;;3.10;3.00;;;;;;;17.85;29.31;99859.44;5094775;28;20237;-71
2022/04/04 10:18:54;;;;;;;4.10;3.90;;;;;;;17.82;29.50;99849.19;5095675;28;20188;-71
2022/04/04 10:21:20;;;;;;;6.00;3.80;;;;;;;17.99;29.56;99857.34;5094274;28;20219;-71
2022/04/04 10:23:50;;;;;;;3.20;2.97;;;;;;;18.04;29.17;99842.13;5094930;28;20850;-71
2022/04/04 10:26:20;;;;;;;3.47;3.17;;;;;;;18.35;28.57;99838.25;5094652;28;20191;-71
2022/04/04 10:28:49;;;;;;;3.97;3.47;;;;;;;18.38;28.61;99833.22;5094401;28;20744;-71
2022/04/04 10:31:17;;;;;;;3.67;3.37;;;;;;;18.21;28.85;99826.91;5094945;28;20263;-71
2022/04/04 10:33:45;;;;;;;5.40;3.57;;;;;;;18.30;29.32;99825.47;5094692;28;20191;-71
2022/04/04 10:36:13;;;;;;;8.93;3.73;;;;;;;18.32;29.31;99822.56;5094681;28;20250;-72
2022/04/04 10:38:47;;;;;;;3.80;3.60;;;;;;;18.13;29.52;99816.53;5094222;28;20191;-72
2022/04/04 10:41:15;;;;;;;3.50;3.30;;;;;;;17.60;30.34;99807.00;5107545;28;20202;-72
2022/04/04 10:43:48;;;;;;;10.80;3.93;;;;;;;17.96;30.20;99812.94;5114686;28;20688;-72
2022/04/04 10:46:17;;;;;;;4.27;4.00;;;;;;;18.38;29.16;99810.91;5114718;28;20191;-71
2022/04/04 10:48:51;;;;;;;4.20;3.90;;;;;;;18.59;28.52;99807.53;5114357;28;20273;-72
2022/04/04 10:51:20;;;;;;;6.50;4.27;;;;;;;18.94;28.19;99811.72;5114288;28;20647;-71
2022/04/04 10:53:53;;;;;;;4.70;4.40;;;;;;;19.16;27.50;99806.44;5113690;28;20191;-73
2022/04/04 10:56:22;;;;;;;4.20;3.90;;;;;;;19.29;27.13;99798.06;5114506;28;20206;-72
2022/04/04 10:58:53;;;;;;;4.33;4.13;;;;;;;19.25;27.06;99797.75;5114650;28;20201;-72
2022/04/04 11:01:21;;;;;;;4.20;4.00;;;;;;;19.29;27.43;99787.28;5114481;28;20220;-72
2022/04/04 11:04:01;;;;;;;4.10;3.90;;;;;;;19.44;26.83;99787.53;5114605;28;20194;-72
2022/04/04 11:09:50;;;;;;;4.73;4.37;;;;;;;19.54;27.07;99785.00;5071510;28;20200;-72
2022/04/04 11:12:18;;;;;;;4.53;4.17;;;;;;;19.51;26.89;99780.09;5071455;28;20354;-72
2022/04/04 11:14:57;;;;;;;4.90;4.50;;;;;;;19.09;27.41;99784.22;5091384;28;20566;-72
2022/04/04 11:17:57;;;;;;;5.10;4.20;;;;;;;19.05;27.29;99769.63;5114267;28;20268;-71
2022/04/04 11:20:46;;;;;;;6.67;3.97;;;;;;;18.99;27.92;99782.19;5113712;28;20253;-72
2022/04/04 11:23:14;;;;;;;4.83;4.53;;;;;;;18.85;28.10;99780.03;5114230;28;20225;-71
2022/04/04 11:25:49;;;;;;;5.70;4.60;;;;;;;18.84;28.15;99773.03;5113368;28;20194;-71
2022/04/04 11:28:17;;;;;;;6.07;5.00;;;;;;;18.91;27.95;99758.34;5113476;28;20273;-73
2022/04/04 11:30:45;;;;;;;7.40;4.67;;;;;;;19.12;27.37;99762.22;5113472;28;20224;-72
2022/04/04 11:33:22;;;;;;;4.47;4.17;;;;;;;19.19;27.86;99754.78;5113281;28;20193;-72
2022/04/04 11:35:50;;;;;;;24.07;7.93;;;;;;;19.28;27.30;99753.34;5113459;28;20275;-72
2022/04/04 11:38:19;;;;;;;8.87;5.77;;;;;;;19.33;27.31;99745.34;5113305;28;20573;-72
2022/04/04 11:40:52;;;;;;;5.13;4.73;;;;;;;19.41;27.08;99743.06;5104439;28;20272;-72
2022/04/04 11:43:21;;;;;;;5.10;4.70;;;;;;;19.55;27.31;99735.41;5093233;28;20617;-72